sensor_id;sensor_type;location;lat;lon;timestamp;temperature;humidity
23801;DHT22;12081;48.614;10.226;2024-03-17T00:08:34;3.20;99.90
23801;DHT22;12081;48.614;10.226;2024-03-17T00:25:03;2.80;99.90
23801;DHT22;12081;48.614;10.226;2024-03-17T00:36:05;2.40;99.90
23801;DHT22;12081;48.614;10.226;2024-03-17T00:44:20;2.50;99.90
23801;DHT22;12081;48.614;10.226;2024-03-17T00:47:04;2.40;99.90
23801;DHT22;12081;48.614;10.226;2024-03-17T00:49:48;2.40;99.90
23801;DHT22;12081;48.614;10.226;2024-03-17T00:58:04;2.50;99.90
23801;DHT22;12081;48.614;10.226;2024-03-17T01:06:17;2.40;99.90
23801;DHT22;12081;48.614;10.226;2024-03-17T01:09:02;2.40;99.90
23801;DHT22;12081;48.614;10.226;2024-03-17T01:14:30;2.40;99.90
23801;DHT22;12081;48.614;10.226;2024-03-17T01:17:15;2.30;99.90
23801;DHT22;12081;48.614;10.226;2024-03-17T01:22:44;2.50;99.90
23801;DHT22;12081;48.614;10.226;2024-03-17T01:25:28;2.30;99.90
23801;DHT22;12081;48.614;10.226;2024-03-17T01:30:58;2.20;99.90
23801;DHT22;12081;48.614;10.226;2024-03-17T01:36:27;2.30;99.90
23801;DHT22;12081;48.614;10.226;2024-03-17T01:44:40;2.30;99.90
23801;DHT22;12081;48.614;10.226;2024-03-17T01:47:24;2.30;99.90
23801;DHT22;12081;48.614;10.226;2024-03-17T01:50:09;2.40;99.90
23801;DHT22;12081;48.614;10.226;2024-03-17T01:52:56;2.30;99.90
23801;DHT22;12081;48.614;10.226;2024-03-17T01:55:44;2.20;99.90
23801;DHT22;12081;48.614;10.226;2024-03-17T01:58:30;2.20;99.90
23801;DHT22;12081;48.614;10.226;2024-03-17T02:01:14;2.10;99.90
23801;DHT22;12081;48.614;10.226;2024-03-17T02:04:00;2.20;99.90
23801;DHT22;12081;48.614;10.226;2024-03-17T02:06:44;2.10;99.90
23801;DHT22;12081;48.614;10.226;2024-03-17T02:14:58;2.00;99.90
23801;DHT22;12081;48.614;10.226;2024-03-17T02:17:43;2.20;99.90
23801;DHT22;12081;48.614;10.226;2024-03-17T02:20:27;2.10;99.90
23801;DHT22;12081;48.614;10.226;2024-03-17T02:31:44;2.30;99.90
23801;DHT22;12081;48.614;10.226;2024-03-17T02:39:59;2.50;99.90
23801;DHT22;12081;48.614;10.226;2024-03-17T02:45:28;2.80;99.90
23801;DHT22;12081;48.614;10.226;2024-03-17T02:48:17;2.70;99.90
23801;DHT22;12081;48.614;10.226;2024-03-17T03:07:43;3.00;99.90
23801;DHT22;12081;48.614;10.226;2024-03-17T03:16:09;3.00;99.90
23801;DHT22;12081;48.614;10.226;2024-03-17T03:24:26;3.00;99.90
23801;DHT22;12081;48.614;10.226;2024-03-17T03:30:02;3.00;99.90
23801;DHT22;12081;48.614;10.226;2024-03-17T03:38:23;3.10;99.90
23801;DHT22;12081;48.614;10.226;2024-03-17T03:41:14;3.10;99.90
23801;DHT22;12081;48.614;10.226;2024-03-17T03:49:32;-1.60;99.90
23801;DHT22;12081;48.614;10.226;2024-03-17T03:55:09;3.10;99.90
23801;DHT22;12081;48.614;10.226;2024-03-17T03:58:01;3.10;99.90
23801;DHT22;12081;48.614;10.226;2024-03-17T04:03:35;3.20;99.90
23801;DHT22;12081;48.614;10.226;2024-03-17T04:09:09;3.30;99.90
23801;DHT22;12081;48.614;10.226;2024-03-17T04:12:03;3.30;99.90
23801;DHT22;12081;48.614;10.226;2024-03-17T05:20:59;3.30;99.90
23801;DHT22;12081;48.614;10.226;2024-03-17T06:16:03;4.10;99.90
23801;DHT22;12081;48.614;10.226;2024-03-17T06:24:21;4.70;99.90
23801;DHT22;12081;48.614;10.226;2024-03-17T06:32:46;4.90;99.90
23801;DHT22;12081;48.614;10.226;2024-03-17T07:00:07;6.80;99.90
23801;DHT22;12081;48.614;10.226;2024-03-17T07:24:57;9.20;99.90
23801;DHT22;12081;48.614;10.226;2024-03-17T07:27:45;10.70;99.90
23801;DHT22;12081;48.614;10.226;2024-03-17T07:30:29;12.30;99.90
23801;DHT22;12081;48.614;10.226;2024-03-17T07:33:13;14.00;99.90
23801;DHT22;12081;48.614;10.226;2024-03-17T07:35:57;16.20;99.90
23801;DHT22;12081;48.614;10.226;2024-03-17T07:38:44;18.10;97.30
23801;DHT22;12081;48.614;10.226;2024-03-17T07:41:28;18.00;93.30
23801;DHT22;12081;48.614;10.226;2024-03-17T07:44:12;21.00;90.30
23801;DHT22;12081;48.614;10.226;2024-03-17T07:46:56;19.40;82.20
23801;DHT22;12081;48.614;10.226;2024-03-17T07:49:40;20.10;77.00
23801;DHT22;12081;48.614;10.226;2024-03-17T07:52:25;20.30;71.40
23801;DHT22;12081;48.614;10.226;2024-03-17T07:55:10;21.60;66.40
23801;DHT22;12081;48.614;10.226;2024-03-17T07:57:55;22.60;64.70
23801;DHT22;12081;48.614;10.226;2024-03-17T08:00:39;22.20;59.70
23801;DHT22;12081;48.614;10.226;2024-03-17T08:03:25;22.50;58.80
23801;DHT22;12081;48.614;10.226;2024-03-17T08:06:10;23.10;56.70
23801;DHT22;12081;48.614;10.226;2024-03-17T08:08:57;23.60;55.60
23801;DHT22;12081;48.614;10.226;2024-03-17T08:11:41;23.30;54.40
23801;DHT22;12081;48.614;10.226;2024-03-17T08:14:30;22.10;55.30
23801;DHT22;12081;48.614;10.226;2024-03-17T08:17:14;21.30;58.50
23801;DHT22;12081;48.614;10.226;2024-03-17T08:19:58;17.70;66.00
23801;DHT22;12081;48.614;10.226;2024-03-17T08:22:42;14.80;69.50
23801;DHT22;12081;48.614;10.226;2024-03-17T08:25:26;16.00;75.20
23801;DHT22;12081;48.614;10.226;2024-03-17T08:28:10;16.00;80.70
23801;DHT22;12081;48.614;10.226;2024-03-17T08:30:56;16.40;80.90
23801;DHT22;12081;48.614;10.226;2024-03-17T08:33:41;16.70;79.30
23801;DHT22;12081;48.614;10.226;2024-03-17T08:36:25;17.00;77.70
23801;DHT22;12081;48.614;10.226;2024-03-17T08:39:10;17.90;76.00
23801;DHT22;12081;48.614;10.226;2024-03-17T08:41:55;18.60;71.40
23801;DHT22;12081;48.614;10.226;2024-03-17T08:44:39;18.80;71.80
23801;DHT22;12081;48.614;10.226;2024-03-17T08:47:23;17.70;70.10
23801;DHT22;12081;48.614;10.226;2024-03-17T08:50:07;16.90;74.20
23801;DHT22;12081;48.614;10.226;2024-03-17T08:52:52;16.50;76.60
23801;DHT22;12081;48.614;10.226;2024-03-17T08:55:39;16.60;78.30
23801;DHT22;12081;48.614;10.226;2024-03-17T08:58:23;16.60;77.00
23801;DHT22;12081;48.614;10.226;2024-03-17T09:01:08;19.50;81.00
23801;DHT22;12081;48.614;10.226;2024-03-17T09:12:08;16.70;80.00
23801;DHT22;12081;48.614;10.226;2024-03-17T09:14:53;16.40;81.60
23801;DHT22;12081;48.614;10.226;2024-03-17T09:20:23;15.90;86.70
23801;DHT22;12081;48.614;10.226;2024-03-17T09:23:07;15.80;89.80
23801;DHT22;12081;48.614;10.226;2024-03-17T09:25:58;15.60;90.70
23801;DHT22;12081;48.614;10.226;2024-03-17T09:28:43;15.50;90.40
23801;DHT22;12081;48.614;10.226;2024-03-17T09:34:12;15.50;91.60
23801;DHT22;12081;48.614;10.226;2024-03-17T09:36:56;15.90;91.40
23801;DHT22;12081;48.614;10.226;2024-03-17T09:39:40;16.50;91.20
23801;DHT22;12081;48.614;10.226;2024-03-17T09:42:26;17.50;88.60
23801;DHT22;12081;48.614;10.226;2024-03-17T09:45:12;18.10;81.20
23801;DHT22;12081;48.614;10.226;2024-03-17T09:47:59;18.90;80.30
23801;DHT22;12081;48.614;10.226;2024-03-17T09:50:53;19.60;74.30
23801;DHT22;12081;48.614;10.226;2024-03-17T09:53:38;20.40;68.50
23801;DHT22;12081;48.614;10.226;2024-03-17T09:56:22;20.50;69.10
23801;DHT22;12081;48.614;10.226;2024-03-17T09:59:06;21.90;63.00
23801;DHT22;12081;48.614;10.226;2024-03-17T10:01:50;23.20;60.60
23801;DHT22;12081;48.614;10.226;2024-03-17T10:04:35;24.20;56.00
23801;DHT22;12081;48.614;10.226;2024-03-17T10:07:37;25.10;52.80
23801;DHT22;12081;48.614;10.226;2024-03-17T10:10:22;25.80;50.90
23801;DHT22;12081;48.614;10.226;2024-03-17T10:13:12;25.30;50.60
23801;DHT22;12081;48.614;10.226;2024-03-17T10:15:56;25.50;49.80
23801;DHT22;12081;48.614;10.226;2024-03-17T10:18:50;24.60;49.70
23801;DHT22;12081;48.614;10.226;2024-03-17T10:21:34;24.50;50.10
23801;DHT22;12081;48.614;10.226;2024-03-17T10:24:26;23.80;51.60
23801;DHT22;12081;48.614;10.226;2024-03-17T10:27:12;23.80;51.90
23801;DHT22;12081;48.614;10.226;2024-03-17T10:29:56;23.90;51.30
23801;DHT22;12081;48.614;10.226;2024-03-17T10:32:40;24.00;51.10
23801;DHT22;12081;48.614;10.226;2024-03-17T10:35:33;23.90;50.50
23801;DHT22;12081;48.614;10.226;2024-03-17T10:38:17;23.60;51.30
23801;DHT22;12081;48.614;10.226;2024-03-17T10:41:02;22.40;52.70
23801;DHT22;12081;48.614;10.226;2024-03-17T10:43:47;22.20;53.10
23801;DHT22;12081;48.614;10.226;2024-03-17T10:46:35;21.40;54.90
23801;DHT22;12081;48.614;10.226;2024-03-17T10:49:21;20.90;55.30
23801;DHT22;12081;48.614;10.226;2024-03-17T10:52:07;20.00;57.90
23801;DHT22;12081;48.614;10.226;2024-03-17T10:54:53;19.30;59.70
23801;DHT22;12081;48.614;10.226;2024-03-17T10:57:45;18.40;61.40
23801;DHT22;12081;48.614;10.226;2024-03-17T11:00:32;19.20;62.70
23801;DHT22;12081;48.614;10.226;2024-03-17T11:03:18;17.10;65.00
23801;DHT22;12081;48.614;10.226;2024-03-17T11:06:04;16.80;67.60
23801;DHT22;12081;48.614;10.226;2024-03-17T11:08:49;16.50;69.60
23801;DHT22;12081;48.614;10.226;2024-03-17T11:11:37;16.50;71.70
23801;DHT22;12081;48.614;10.226;2024-03-17T11:14:23;16.80;70.60
23801;DHT22;12081;48.614;10.226;2024-03-17T11:17:18;17.10;71.00
23801;DHT22;12081;48.614;10.226;2024-03-17T11:20:14;17.50;70.10
23801;DHT22;12081;48.614;10.226;2024-03-17T11:22:59;17.50;69.90
23801;DHT22;12081;48.614;10.226;2024-03-17T11:25:51;17.80;70.10
23801;DHT22;12081;48.614;10.226;2024-03-17T11:31:43;17.40;68.70
23801;DHT22;12081;48.614;10.226;2024-03-17T11:34:32;17.50;70.20
23801;DHT22;12081;48.614;10.226;2024-03-17T11:37:42;17.50;69.60
23801;DHT22;12081;48.614;10.226;2024-03-17T11:43:16;17.20;69.20
23801;DHT22;12081;48.614;10.226;2024-03-17T11:46:01;17.50;70.00
23801;DHT22;12081;48.614;10.226;2024-03-17T11:48:45;17.80;69.80
23801;DHT22;12081;48.614;10.226;2024-03-17T11:51:29;22.40;70.90
23801;DHT22;12081;48.614;10.226;2024-03-17T11:54:19;18.20;67.60
23801;DHT22;12081;48.614;10.226;2024-03-17T11:57:08;18.40;67.60
23801;DHT22;12081;48.614;10.226;2024-03-17T11:59:56;18.30;69.10
23801;DHT22;12081;48.614;10.226;2024-03-17T12:02:41;18.50;67.40
23801;DHT22;12081;48.614;10.226;2024-03-17T12:05:26;18.50;68.80
23801;DHT22;12081;48.614;10.226;2024-03-17T12:08:20;18.40;68.00
23801;DHT22;12081;48.614;10.226;2024-03-17T12:11:16;17.90;67.40
23801;DHT22;12081;48.614;10.226;2024-03-17T12:14:12;17.80;68.40
23801;DHT22;12081;48.614;10.226;2024-03-17T12:17:02;17.70;69.50
23801;DHT22;12081;48.614;10.226;2024-03-17T12:19:46;18.00;68.00
23801;DHT22;12081;48.614;10.226;2024-03-17T12:22:32;18.60;65.90
23801;DHT22;12081;48.614;10.226;2024-03-17T12:25:20;19.00;65.60
23801;DHT22;12081;48.614;10.226;2024-03-17T12:28:15;19.30;63.20
23801;DHT22;12081;48.614;10.226;2024-03-17T12:31:00;19.30;62.70
23801;DHT22;12081;48.614;10.226;2024-03-17T12:33:44;19.20;61.60
23801;DHT22;12081;48.614;10.226;2024-03-17T12:36:28;19.00;64.30
23801;DHT22;12081;48.614;10.226;2024-03-17T12:39:25;18.90;61.20
23801;DHT22;12081;48.614;10.226;2024-03-17T12:42:12;18.90;63.40
23801;DHT22;12081;48.614;10.226;2024-03-17T12:45:00;18.90;65.00
23801;DHT22;12081;48.614;10.226;2024-03-17T12:47:47;18.50;65.30
23801;DHT22;12081;48.614;10.226;2024-03-17T12:50:32;18.40;65.70
23801;DHT22;12081;48.614;10.226;2024-03-17T12:53:16;18.30;65.40
23801;DHT22;12081;48.614;10.226;2024-03-17T12:56:04;18.60;64.30
23801;DHT22;12081;48.614;10.226;2024-03-17T12:59:09;18.90;64.60
23801;DHT22;12081;48.614;10.226;2024-03-17T13:02:13;18.70;64.00
23801;DHT22;12081;48.614;10.226;2024-03-17T13:10:37;17.60;68.70
23801;DHT22;12081;48.614;10.226;2024-03-17T13:13:21;17.40;67.80
23801;DHT22;12081;48.614;10.226;2024-03-17T13:16:05;17.30;68.50
23801;DHT22;12081;48.614;10.226;2024-03-17T13:18:51;17.10;69.10
23801;DHT22;12081;48.614;10.226;2024-03-17T13:21:35;17.20;69.40
23801;DHT22;12081;48.614;10.226;2024-03-17T13:24:19;17.30;70.60
23801;DHT22;12081;48.614;10.226;2024-03-17T13:27:04;17.40;68.80
23801;DHT22;12081;48.614;10.226;2024-03-17T13:29:49;17.60;68.60
23801;DHT22;12081;48.614;10.226;2024-03-17T13:32:33;17.80;68.00
23801;DHT22;12081;48.614;10.226;2024-03-17T13:35:18;17.60;68.70
23801;DHT22;12081;48.614;10.226;2024-03-17T13:38:05;17.50;69.30
23801;DHT22;12081;48.614;10.226;2024-03-17T13:40:50;17.00;69.10
23801;DHT22;12081;48.614;10.226;2024-03-17T13:43:35;17.20;69.70
23801;DHT22;12081;48.614;10.226;2024-03-17T13:46:19;17.10;70.70
23801;DHT22;12081;48.614;10.226;2024-03-17T13:49:09;17.30;69.80
23801;DHT22;12081;48.614;10.226;2024-03-17T13:51:54;17.00;71.40
23801;DHT22;12081;48.614;10.226;2024-03-17T13:54:38;17.10;72.00
23801;DHT22;12081;48.614;10.226;2024-03-17T13:57:22;17.20;71.50
23801;DHT22;12081;48.614;10.226;2024-03-17T14:00:06;17.00;71.20
23801;DHT22;12081;48.614;10.226;2024-03-17T14:02:53;16.90;71.80
23801;DHT22;12081;48.614;10.226;2024-03-17T14:05:37;17.10;70.50
23801;DHT22;12081;48.614;10.226;2024-03-17T14:13:51;16.50;74.70
23801;DHT22;12081;48.614;10.226;2024-03-17T14:16:35;16.40;76.80
23801;DHT22;12081;48.614;10.226;2024-03-17T14:22:03;15.90;76.50
23801;DHT22;12081;48.614;10.226;2024-03-17T14:24:47;15.60;78.40
23801;DHT22;12081;48.614;10.226;2024-03-17T14:30:19;15.20;79.80
23801;DHT22;12081;48.614;10.226;2024-03-17T14:35:59;15.10;83.70
23801;DHT22;12081;48.614;10.226;2024-03-17T14:38:43;14.90;85.80
23801;DHT22;12081;48.614;10.226;2024-03-17T14:41:31;14.90;86.30
23801;DHT22;12081;48.614;10.226;2024-03-17T14:44:15;14.90;88.50
23801;DHT22;12081;48.614;10.226;2024-03-17T14:46:59;14.80;87.90
23801;DHT22;12081;48.614;10.226;2024-03-17T14:49:43;14.90;88.10
23801;DHT22;12081;48.614;10.226;2024-03-17T14:52:29;14.90;89.70
23801;DHT22;12081;48.614;10.226;2024-03-17T14:57:59;14.90;90.10
23801;DHT22;12081;48.614;10.226;2024-03-17T15:00:50;14.80;90.50
23801;DHT22;12081;48.614;10.226;2024-03-17T15:03:35;15.00;89.00
23801;DHT22;12081;48.614;10.226;2024-03-17T15:06:19;15.00;88.80
23801;DHT22;12081;48.614;10.226;2024-03-17T15:09:03;14.90;88.70
23801;DHT22;12081;48.614;10.226;2024-03-17T15:11:48;15.10;88.70
23801;DHT22;12081;48.614;10.226;2024-03-17T15:14:32;15.10;89.30
23801;DHT22;12081;48.614;10.226;2024-03-17T15:17:16;15.30;90.20
23801;DHT22;12081;48.614;10.226;2024-03-17T15:20:00;15.30;89.70
23801;DHT22;12081;48.614;10.226;2024-03-17T15:22:49;15.10;90.40
23801;DHT22;12081;48.614;10.226;2024-03-17T15:25:33;15.00;90.80
23801;DHT22;12081;48.614;10.226;2024-03-17T15:28:17;15.00;90.40
23801;DHT22;12081;48.614;10.226;2024-03-17T15:31:05;14.90;91.20
23801;DHT22;12081;48.614;10.226;2024-03-17T15:33:50;14.90;91.30
23801;DHT22;12081;48.614;10.226;2024-03-17T15:39:19;15.00;90.80
23801;DHT22;12081;48.614;10.226;2024-03-17T15:42:03;15.00;90.50
23801;DHT22;12081;48.614;10.226;2024-03-17T15:44:49;15.10;91.00
23801;DHT22;12081;48.614;10.226;2024-03-17T15:50:19;15.10;89.90
23801;DHT22;12081;48.614;10.226;2024-03-17T15:53:03;15.10;90.20
23801;DHT22;12081;48.614;10.226;2024-03-17T15:55:53;15.20;90.10
23801;DHT22;12081;48.614;10.226;2024-03-17T15:58:38;15.10;90.40
23801;DHT22;12081;48.614;10.226;2024-03-17T16:01:37;15.00;89.80
23801;DHT22;12081;48.614;10.226;2024-03-17T16:04:21;15.00;90.40
23801;DHT22;12081;48.614;10.226;2024-03-17T16:07:08;15.00;91.30
23801;DHT22;12081;48.614;10.226;2024-03-17T16:09:53;14.90;92.00
23801;DHT22;12081;48.614;10.226;2024-03-17T16:12:37;14.80;91.50
23801;DHT22;12081;48.614;10.226;2024-03-17T16:15:22;14.70;91.70
23801;DHT22;12081;48.614;10.226;2024-03-17T16:18:08;14.50;92.10
23801;DHT22;12081;48.614;10.226;2024-03-17T16:21:06;14.40;93.30
23801;DHT22;12081;48.614;10.226;2024-03-17T16:23:57;14.20;93.70
23801;DHT22;12081;48.614;10.226;2024-03-17T16:26:45;14.00;93.80
23801;DHT22;12081;48.614;10.226;2024-03-17T16:29:32;13.90;94.50
23801;DHT22;12081;48.614;10.226;2024-03-17T16:32:16;13.60;95.50
23801;DHT22;12081;48.614;10.226;2024-03-17T16:35:02;13.80;95.90
23801;DHT22;12081;48.614;10.226;2024-03-17T16:37:47;13.40;98.90
23801;DHT22;12081;48.614;10.226;2024-03-17T16:43:50;13.10;99.90
23801;DHT22;12081;48.614;10.226;2024-03-17T16:49:35;12.80;99.90
23801;DHT22;12081;48.614;10.226;2024-03-17T16:52:19;12.50;99.90
23801;DHT22;12081;48.614;10.226;2024-03-17T16:55:05;10.40;99.90
23801;DHT22;12081;48.614;10.226;2024-03-17T16:57:50;12.40;99.90
23801;DHT22;12081;48.614;10.226;2024-03-17T17:03:18;12.20;99.90
23801;DHT22;12081;48.614;10.226;2024-03-17T17:06:03;12.20;99.90
23801;DHT22;12081;48.614;10.226;2024-03-17T17:08:47;12.10;99.90
23801;DHT22;12081;48.614;10.226;2024-03-17T17:11:32;11.90;99.90
23801;DHT22;12081;48.614;10.226;2024-03-17T17:17:00;11.70;99.90
23801;DHT22;12081;48.614;10.226;2024-03-17T17:19:44;11.70;99.90
23801;DHT22;12081;48.614;10.226;2024-03-17T17:25:14;11.60;99.90
23801;DHT22;12081;48.614;10.226;2024-03-17T17:28:03;11.50;99.90
23801;DHT22;12081;48.614;10.226;2024-03-17T17:36:21;11.30;99.90
23801;DHT22;12081;48.614;10.226;2024-03-17T17:44:35;11.10;99.90
23801;DHT22;12081;48.614;10.226;2024-03-17T17:50:04;11.00;99.90
23801;DHT22;12081;48.614;10.226;2024-03-17T18:01:41;10.70;99.90
23801;DHT22;12081;48.614;10.226;2024-03-17T18:04:25;10.60;99.90
23801;DHT22;12081;48.614;10.226;2024-03-17T18:07:10;10.60;99.90
23801;DHT22;12081;48.614;10.226;2024-03-17T18:09:54;10.50;99.90
23801;DHT22;12081;48.614;10.226;2024-03-17T18:12:38;10.60;99.90
23801;DHT22;12081;48.614;10.226;2024-03-17T18:15:21;10.70;99.90
23801;DHT22;12081;48.614;10.226;2024-03-17T18:18:16;10.60;99.90
23801;DHT22;12081;48.614;10.226;2024-03-17T18:21:03;10.70;99.90
23801;DHT22;12081;48.614;10.226;2024-03-17T18:29:20;10.30;99.90
23801;DHT22;12081;48.614;10.226;2024-03-17T18:32:05;10.50;99.90
23801;DHT22;12081;48.614;10.226;2024-03-17T18:37:34;10.40;99.90
23801;DHT22;12081;48.614;10.226;2024-03-17T18:40:20;10.30;99.90
23801;DHT22;12081;48.614;10.226;2024-03-17T18:43:04;10.20;99.90
23801;DHT22;12081;48.614;10.226;2024-03-17T18:45:48;10.20;99.90
23801;DHT22;12081;48.614;10.226;2024-03-17T18:48:32;10.10;99.90
23801;DHT22;12081;48.614;10.226;2024-03-17T18:51:17;10.20;99.90
23801;DHT22;12081;48.614;10.226;2024-03-17T18:54:02;10.20;99.90
23801;DHT22;12081;48.614;10.226;2024-03-17T18:56:46;10.10;99.90
23801;DHT22;12081;48.614;10.226;2024-03-17T19:02:16;9.90;99.90
23801;DHT22;12081;48.614;10.226;2024-03-17T19:10:33;9.70;99.90
23801;DHT22;12081;48.614;10.226;2024-03-17T19:13:17;9.60;99.90
23801;DHT22;12081;48.614;10.226;2024-03-17T19:16:02;9.50;99.90
23801;DHT22;12081;48.614;10.226;2024-03-17T19:18:48;9.40;99.90
23801;DHT22;12081;48.614;10.226;2024-03-17T19:21:32;9.50;99.90
23801;DHT22;12081;48.614;10.226;2024-03-17T19:27:04;9.40;99.90
23801;DHT22;12081;48.614;10.226;2024-03-17T19:29:48;9.30;99.90
23801;DHT22;12081;48.614;10.226;2024-03-17T19:32:32;9.30;99.90
23801;DHT22;12081;48.614;10.226;2024-03-17T19:35:21;9.20;99.90
23801;DHT22;12081;48.614;10.226;2024-03-17T19:38:05;9.20;99.90
23801;DHT22;12081;48.614;10.226;2024-03-17T19:40:56;9.20;99.90
23801;DHT22;12081;48.614;10.226;2024-03-17T19:51:54;9.10;99.90
23801;DHT22;12081;48.614;10.226;2024-03-17T19:57:22;9.10;99.90
23801;DHT22;12081;48.614;10.226;2024-03-17T20:00:07;9.10;99.90
23801;DHT22;12081;48.614;10.226;2024-03-17T20:02:52;9.00;99.90
23801;DHT22;12081;48.614;10.226;2024-03-17T20:05:38;8.90;99.90
23801;DHT22;12081;48.614;10.226;2024-03-17T20:11:09;8.80;99.90
23801;DHT22;12081;48.614;10.226;2024-03-17T20:13:54;8.80;99.90
23801;DHT22;12081;48.614;10.226;2024-03-17T20:16:38;8.80;99.90
23801;DHT22;12081;48.614;10.226;2024-03-17T20:19:22;8.70;99.90
23801;DHT22;12081;48.614;10.226;2024-03-17T20:22:06;8.80;99.90
23801;DHT22;12081;48.614;10.226;2024-03-17T20:24:51;8.70;99.90
23801;DHT22;12081;48.614;10.226;2024-03-17T20:30:21;8.70;99.90
23801;DHT22;12081;48.614;10.226;2024-03-17T20:33:08;8.50;99.90
23801;DHT22;12081;48.614;10.226;2024-03-17T20:35:53;8.50;99.90
23801;DHT22;12081;48.614;10.226;2024-03-17T20:41:21;8.20;99.90
23801;DHT22;12081;48.614;10.226;2024-03-17T20:44:06;8.10;99.90
23801;DHT22;12081;48.614;10.226;2024-03-17T20:46:51;8.20;99.90
23801;DHT22;12081;48.614;10.226;2024-03-17T20:49:37;8.20;99.90
23801;DHT22;12081;48.614;10.226;2024-03-17T20:55:07;8.00;99.90
23801;DHT22;12081;48.614;10.226;2024-03-17T21:00:38;7.90;99.90
23801;DHT22;12081;48.614;10.226;2024-03-17T21:03:22;7.90;99.90
23801;DHT22;12081;48.614;10.226;2024-03-17T21:06:12;7.90;99.90
23801;DHT22;12081;48.614;10.226;2024-03-17T21:08:58;7.80;99.90
23801;DHT22;12081;48.614;10.226;2024-03-17T21:11:42;7.60;99.90
23801;DHT22;12081;48.614;10.226;2024-03-17T21:14:27;7.60;99.90
23801;DHT22;12081;48.614;10.226;2024-03-17T21:19:56;7.50;99.90
23801;DHT22;12081;48.614;10.226;2024-03-17T21:22:42;7.70;99.90
23801;DHT22;12081;48.614;10.226;2024-03-17T21:25:26;7.50;99.90
23801;DHT22;12081;48.614;10.226;2024-03-17T21:28:11;7.40;99.90
23801;DHT22;12081;48.614;10.226;2024-03-17T21:31:00;7.30;99.90
23801;DHT22;12081;48.614;10.226;2024-03-17T21:36:29;7.20;99.90
23801;DHT22;12081;48.614;10.226;2024-03-17T21:39:13;7.20;99.90
23801;DHT22;12081;48.614;10.226;2024-03-17T21:44:42;7.20;99.90
23801;DHT22;12081;48.614;10.226;2024-03-17T21:50:11;7.10;99.90
23801;DHT22;12081;48.614;10.226;2024-03-17T21:52:56;7.10;99.90
23801;DHT22;12081;48.614;10.226;2024-03-17T21:58:25;7.10;99.90
23801;DHT22;12081;48.614;10.226;2024-03-17T22:01:10;7.20;99.90
23801;DHT22;12081;48.614;10.226;2024-03-17T22:25:59;7.10;99.90
23801;DHT22;12081;48.614;10.226;2024-03-17T22:31:28;7.10;99.90
23801;DHT22;12081;48.614;10.226;2024-03-17T22:34:13;6.90;99.90
23801;DHT22;12081;48.614;10.226;2024-03-17T22:36:57;6.90;99.90
23801;DHT22;12081;48.614;10.226;2024-03-17T22:39:42;6.90;99.90
23801;DHT22;12081;48.614;10.226;2024-03-17T22:45:12;6.80;99.90
23801;DHT22;12081;48.614;10.226;2024-03-17T22:47:56;6.90;99.90
23801;DHT22;12081;48.614;10.226;2024-03-17T22:53:27;6.90;99.90
23801;DHT22;12081;48.614;10.226;2024-03-17T22:56:12;6.90;99.90
23801;DHT22;12081;48.614;10.226;2024-03-17T22:58:56;6.90;99.90
23801;DHT22;12081;48.614;10.226;2024-03-17T23:01:43;6.90;99.90
23801;DHT22;12081;48.614;10.226;2024-03-17T23:07:11;6.90;99.90
23801;DHT22;12081;48.614;10.226;2024-03-17T23:15:25;7.20;99.90
23801;DHT22;12081;48.614;10.226;2024-03-17T23:23:38;6.90;99.90
23801;DHT22;12081;48.614;10.226;2024-03-17T23:29:07;6.80;99.90
23801;DHT22;12081;48.614;10.226;2024-03-17T23:37:20;6.80;99.90
23801;DHT22;12081;48.614;10.226;2024-03-17T23:40:08;6.80;99.90
23801;DHT22;12081;48.614;10.226;2024-03-17T23:42:58;6.70;99.90
23801;DHT22;12081;48.614;10.226;2024-03-17T23:45:45;6.80;99.90
